sensor_id;sensor_type;location;lat;lon;timestamp;P1;durP1;ratioP1;P2;durP2;ratioP2
24787;SDS011;12883;52.662;5.196;2023-02-14T00:02:02;65.60;;;65.10;;
24787;SDS011;12883;52.662;5.196;2023-02-14T00:04:28;68.17;;;67.67;;
24787;SDS011;12883;52.662;5.196;2023-02-14T00:06:54;64.23;;;63.83;;
24787;SDS011;12883;52.662;5.196;2023-02-14T00:09:19;66.53;;;66.03;;
24787;SDS011;12883;52.662;5.196;2023-02-14T00:11:45;66.67;;;66.17;;
24787;SDS011;12883;52.662;5.196;2023-02-14T00:14:11;66.77;;;66.27;;
24787;SDS011;12883;52.662;5.196;2023-02-14T00:16:55;67.10;;;66.60;;
24787;SDS011;12883;52.662;5.196;2023-02-14T00:19:21;63.57;;;63.07;;
24787;SDS011;12883;52.662;5.196;2023-02-14T00:21:47;65.93;;;65.43;;
24787;SDS011;12883;52.662;5.196;2023-02-14T00:24:14;69.57;;;69.07;;
24787;SDS011;12883;52.662;5.196;2023-02-14T00:26:41;66.37;;;65.87;;
24787;SDS011;12883;52.662;5.196;2023-02-14T00:29:08;65.60;;;65.10;;
24787;SDS011;12883;52.662;5.196;2023-02-14T00:31:36;68.20;;;67.70;;
24787;SDS011;12883;52.662;5.196;2023-02-14T00:34:02;64.47;;;63.97;;
24787;SDS011;12883;52.662;5.196;2023-02-14T00:36:28;65.40;;;64.90;;
24787;SDS011;12883;52.662;5.196;2023-02-14T00:38:54;65.60;;;65.10;;
24787;SDS011;12883;52.662;5.196;2023-02-14T00:41:19;65.57;;;65.07;;
24787;SDS011;12883;52.662;5.196;2023-02-14T00:43:45;65.43;;;64.93;;
24787;SDS011;12883;52.662;5.196;2023-02-14T00:46:12;66.27;;;65.77;;
24787;SDS011;12883;52.662;5.196;2023-02-14T00:48:38;64.67;;;64.17;;
24787;SDS011;12883;52.662;5.196;2023-02-14T00:51:03;65.37;;;64.87;;
24787;SDS011;12883;52.662;5.196;2023-02-14T00:53:29;62.97;;;62.57;;
24787;SDS011;12883;52.662;5.196;2023-02-14T00:55:54;64.73;;;64.23;;
24787;SDS011;12883;52.662;5.196;2023-02-14T00:58:19;65.47;;;64.97;;
24787;SDS011;12883;52.662;5.196;2023-02-14T01:00:45;63.30;;;62.80;;
24787;SDS011;12883;52.662;5.196;2023-02-14T01:03:10;64.83;;;64.33;;
24787;SDS011;12883;52.662;5.196;2023-02-14T01:05:35;65.20;;;64.70;;
24787;SDS011;12883;52.662;5.196;2023-02-14T01:08:01;62.90;;;62.40;;
24787;SDS011;12883;52.662;5.196;2023-02-14T01:10:26;63.37;;;62.87;;
24787;SDS011;12883;52.662;5.196;2023-02-14T01:12:51;66.80;;;66.30;;
24787;SDS011;12883;52.662;5.196;2023-02-14T01:15:17;65.07;;;64.57;;
24787;SDS011;12883;52.662;5.196;2023-02-14T01:17:42;63.60;;;63.10;;
24787;SDS011;12883;52.662;5.196;2023-02-14T01:20:08;65.90;;;65.40;;
24787;SDS011;12883;52.662;5.196;2023-02-14T01:22:35;64.20;;;63.70;;
24787;SDS011;12883;52.662;5.196;2023-02-14T01:25:01;62.93;;;62.43;;
24787;SDS011;12883;52.662;5.196;2023-02-14T01:27:26;63.23;;;62.73;;
24787;SDS011;12883;52.662;5.196;2023-02-14T01:29:52;64.20;;;63.70;;
24787;SDS011;12883;52.662;5.196;2023-02-14T01:32:17;62.53;;;62.03;;
24787;SDS011;12883;52.662;5.196;2023-02-14T01:34:43;63.37;;;62.87;;
24787;SDS011;12883;52.662;5.196;2023-02-14T01:37:08;62.53;;;62.03;;
24787;SDS011;12883;52.662;5.196;2023-02-14T01:39:33;63.63;;;63.13;;
24787;SDS011;12883;52.662;5.196;2023-02-14T01:41:59;63.93;;;63.43;;
24787;SDS011;12883;52.662;5.196;2023-02-14T01:46:50;64.37;;;63.87;;
24787;SDS011;12883;52.662;5.196;2023-02-14T01:49:16;61.93;;;61.43;;
24787;SDS011;12883;52.662;5.196;2023-02-14T01:54:37;61.43;;;60.93;;
24787;SDS011;12883;52.662;5.196;2023-02-14T01:57:07;62.63;;;62.20;;
24787;SDS011;12883;52.662;5.196;2023-02-14T01:59:37;64.43;;;63.93;;
24787;SDS011;12883;52.662;5.196;2023-02-14T02:02:06;63.20;;;62.70;;
24787;SDS011;12883;52.662;5.196;2023-02-14T02:04:33;62.20;;;61.70;;
24787;SDS011;12883;52.662;5.196;2023-02-14T02:07:03;63.97;;;63.47;;
24787;SDS011;12883;52.662;5.196;2023-02-14T02:10:14;61.90;;;61.40;;
24787;SDS011;12883;52.662;5.196;2023-02-14T02:12:22;64.37;;;63.87;;
24787;SDS011;12883;52.662;5.196;2023-02-14T02:14:49;65.50;;;65.00;;
24787;SDS011;12883;52.662;5.196;2023-02-14T02:20:21;63.17;;;62.67;;
24787;SDS011;12883;52.662;5.196;2023-02-14T02:39:55;63.83;;;63.33;;
24787;SDS011;12883;52.662;5.196;2023-02-14T02:43:06;59.30;;;58.80;;
24787;SDS011;12883;52.662;5.196;2023-02-14T02:48:42;58.13;;;57.73;;
24787;SDS011;12883;52.662;5.196;2023-02-14T02:51:15;59.17;;;58.73;;
24787;SDS011;12883;52.662;5.196;2023-02-14T02:54:08;61.67;;;61.17;;
24787;SDS011;12883;52.662;5.196;2023-02-14T02:56:47;64.87;;;64.37;;
24787;SDS011;12883;52.662;5.196;2023-02-14T02:59:22;62.60;;;62.10;;
24787;SDS011;12883;52.662;5.196;2023-02-14T03:04:35;60.57;;;60.07;;
24787;SDS011;12883;52.662;5.196;2023-02-14T03:07:18;60.43;;;59.93;;
24787;SDS011;12883;52.662;5.196;2023-02-14T03:10:07;62.07;;;61.57;;
24787;SDS011;12883;52.662;5.196;2023-02-14T03:18:10;58.47;;;57.97;;
24787;SDS011;12883;52.662;5.196;2023-02-14T03:21:13;57.03;;;56.63;;
24787;SDS011;12883;52.662;5.196;2023-02-14T03:26:38;60.67;;;60.17;;
24787;SDS011;12883;52.662;5.196;2023-02-14T03:37:24;61.60;;;61.10;;
24787;SDS011;12883;52.662;5.196;2023-02-14T03:40:02;61.87;;;61.37;;
24787;SDS011;12883;52.662;5.196;2023-02-14T03:42:36;58.50;;;58.10;;
24787;SDS011;12883;52.662;5.196;2023-02-14T03:45:06;61.63;;;61.13;;
24787;SDS011;12883;52.662;5.196;2023-02-14T03:47:34;59.90;;;59.40;;
24787;SDS011;12883;52.662;5.196;2023-02-14T03:50:05;60.43;;;59.93;;
24787;SDS011;12883;52.662;5.196;2023-02-14T03:52:34;59.23;;;58.83;;
24787;SDS011;12883;52.662;5.196;2023-02-14T03:55:02;62.83;;;62.33;;
24787;SDS011;12883;52.662;5.196;2023-02-14T03:59:59;59.27;;;58.77;;
24787;SDS011;12883;52.662;5.196;2023-02-14T04:04:55;56.37;;;55.97;;
24787;SDS011;12883;52.662;5.196;2023-02-14T04:07:24;58.73;;;58.23;;
24787;SDS011;12883;52.662;5.196;2023-02-14T04:09:49;57.30;;;56.90;;
24787;SDS011;12883;52.662;5.196;2023-02-14T04:12:15;56.93;;;56.53;;
24787;SDS011;12883;52.662;5.196;2023-02-14T04:14:42;53.23;;;52.83;;
24787;SDS011;12883;52.662;5.196;2023-02-14T04:17:07;56.03;;;55.63;;
24787;SDS011;12883;52.662;5.196;2023-02-14T04:19:51;56.97;;;56.57;;
24787;SDS011;12883;52.662;5.196;2023-02-14T04:22:17;57.43;;;57.03;;
24787;SDS011;12883;52.662;5.196;2023-02-14T04:24:42;52.77;;;52.37;;
24787;SDS011;12883;52.662;5.196;2023-02-14T04:27:08;56.33;;;55.93;;
24787;SDS011;12883;52.662;5.196;2023-02-14T04:29:37;53.50;;;53.10;;
24787;SDS011;12883;52.662;5.196;2023-02-14T04:32:05;55.10;;;54.70;;
24787;SDS011;12883;52.662;5.196;2023-02-14T04:34:31;56.07;;;55.67;;
24787;SDS011;12883;52.662;5.196;2023-02-14T04:36:57;52.23;;;51.83;;
24787;SDS011;12883;52.662;5.196;2023-02-14T04:39:22;55.87;;;55.47;;
24787;SDS011;12883;52.662;5.196;2023-02-14T04:41:47;55.03;;;54.63;;
24787;SDS011;12883;52.662;5.196;2023-02-14T04:44:13;54.50;;;54.10;;
24787;SDS011;12883;52.662;5.196;2023-02-14T04:46:38;55.93;;;55.53;;
24787;SDS011;12883;52.662;5.196;2023-02-14T04:49:03;53.93;;;53.53;;
24787;SDS011;12883;52.662;5.196;2023-02-14T04:51:29;55.30;;;54.90;;
24787;SDS011;12883;52.662;5.196;2023-02-14T04:53:54;55.53;;;55.13;;
24787;SDS011;12883;52.662;5.196;2023-02-14T04:56:19;58.33;;;57.93;;
24787;SDS011;12883;52.662;5.196;2023-02-14T04:58:45;53.57;;;53.17;;
24787;SDS011;12883;52.662;5.196;2023-02-14T05:01:10;54.57;;;54.17;;
24787;SDS011;12883;52.662;5.196;2023-02-14T05:03:35;53.73;;;53.33;;
24787;SDS011;12883;52.662;5.196;2023-02-14T05:06:01;54.87;;;54.47;;
24787;SDS011;12883;52.662;5.196;2023-02-14T05:08:26;52.30;;;51.90;;
24787;SDS011;12883;52.662;5.196;2023-02-14T05:10:53;52.43;;;52.03;;
24787;SDS011;12883;52.662;5.196;2023-02-14T05:13:18;53.63;;;53.23;;
24787;SDS011;12883;52.662;5.196;2023-02-14T05:15:44;51.23;;;50.83;;
24787;SDS011;12883;52.662;5.196;2023-02-14T05:18:10;50.67;;;50.27;;
24787;SDS011;12883;52.662;5.196;2023-02-14T05:20:36;49.60;;;49.20;;
24787;SDS011;12883;52.662;5.196;2023-02-14T05:23:01;49.30;;;48.90;;
24787;SDS011;12883;52.662;5.196;2023-02-14T05:25:30;51.57;;;51.17;;
24787;SDS011;12883;52.662;5.196;2023-02-14T05:27:55;49.63;;;49.23;;
24787;SDS011;12883;52.662;5.196;2023-02-14T05:30:22;54.13;;;53.73;;
24787;SDS011;12883;52.662;5.196;2023-02-14T05:32:51;49.43;;;49.03;;
24787;SDS011;12883;52.662;5.196;2023-02-14T05:35:18;51.07;;;50.67;;
24787;SDS011;12883;52.662;5.196;2023-02-14T05:37:43;50.03;;;49.63;;
24787;SDS011;12883;52.662;5.196;2023-02-14T05:40:09;51.20;;;50.80;;
24787;SDS011;12883;52.662;5.196;2023-02-14T05:42:37;51.20;;;50.80;;
24787;SDS011;12883;52.662;5.196;2023-02-14T05:45:03;48.50;;;48.20;;
24787;SDS011;12883;52.662;5.196;2023-02-14T05:47:28;47.67;;;47.27;;
24787;SDS011;12883;52.662;5.196;2023-02-14T05:49:54;44.97;;;44.57;;
24787;SDS011;12883;52.662;5.196;2023-02-14T05:52:19;42.73;;;42.33;;
24787;SDS011;12883;52.662;5.196;2023-02-14T05:54:44;44.50;;;43.93;;
24787;SDS011;12883;52.662;5.196;2023-02-14T05:57:10;43.63;;;43.03;;
24787;SDS011;12883;52.662;5.196;2023-02-14T05:59:35;43.40;;;42.67;;
24787;SDS011;12883;52.662;5.196;2023-02-14T06:02:00;41.23;;;40.43;;
24787;SDS011;12883;52.662;5.196;2023-02-14T06:04:25;40.27;;;39.60;;
24787;SDS011;12883;52.662;5.196;2023-02-14T06:06:51;37.90;;;37.30;;
24787;SDS011;12883;52.662;5.196;2023-02-14T06:09:16;35.17;;;34.57;;
24787;SDS011;12883;52.662;5.196;2023-02-14T06:11:43;38.83;;;38.33;;
24787;SDS011;12883;52.662;5.196;2023-02-14T06:14:09;37.83;;;37.37;;
24787;SDS011;12883;52.662;5.196;2023-02-14T06:16:34;38.90;;;38.43;;
24787;SDS011;12883;52.662;5.196;2023-02-14T06:19:00;36.77;;;36.20;;
24787;SDS011;12883;52.662;5.196;2023-02-14T06:21:25;37.27;;;36.87;;
24787;SDS011;12883;52.662;5.196;2023-02-14T06:23:51;36.10;;;35.80;;
24787;SDS011;12883;52.662;5.196;2023-02-14T06:26:16;36.77;;;36.47;;
24787;SDS011;12883;52.662;5.196;2023-02-14T06:28:41;39.03;;;38.83;;
24787;SDS011;12883;52.662;5.196;2023-02-14T06:31:07;37.80;;;37.57;;
24787;SDS011;12883;52.662;5.196;2023-02-14T06:33:32;39.23;;;39.03;;
24787;SDS011;12883;52.662;5.196;2023-02-14T06:35:58;39.97;;;39.70;;
24787;SDS011;12883;52.662;5.196;2023-02-14T06:38:23;38.37;;;38.10;;
24787;SDS011;12883;52.662;5.196;2023-02-14T06:40:49;39.17;;;38.93;;
24787;SDS011;12883;52.662;5.196;2023-02-14T06:43:14;38.33;;;38.13;;
24787;SDS011;12883;52.662;5.196;2023-02-14T06:45:39;39.63;;;39.33;;
24787;SDS011;12883;52.662;5.196;2023-02-14T06:48:07;37.83;;;37.63;;
24787;SDS011;12883;52.662;5.196;2023-02-14T06:50:33;38.50;;;38.20;;
24787;SDS011;12883;52.662;5.196;2023-02-14T06:52:59;38.77;;;38.57;;
24787;SDS011;12883;52.662;5.196;2023-02-14T06:55:25;37.73;;;37.53;;
24787;SDS011;12883;52.662;5.196;2023-02-14T06:57:50;37.87;;;37.67;;
24787;SDS011;12883;52.662;5.196;2023-02-14T07:00:16;36.50;;;36.30;;
24787;SDS011;12883;52.662;5.196;2023-02-14T07:02:41;38.93;;;38.73;;
24787;SDS011;12883;52.662;5.196;2023-02-14T07:05:07;38.53;;;38.30;;
24787;SDS011;12883;52.662;5.196;2023-02-14T07:07:33;40.70;;;40.40;;
24787;SDS011;12883;52.662;5.196;2023-02-14T07:09:58;40.97;;;40.67;;
24787;SDS011;12883;52.662;5.196;2023-02-14T07:12:23;38.20;;;37.90;;
24787;SDS011;12883;52.662;5.196;2023-02-14T07:14:49;39.37;;;39.13;;
24787;SDS011;12883;52.662;5.196;2023-02-14T07:17:14;40.20;;;39.90;;
24787;SDS011;12883;52.662;5.196;2023-02-14T07:19:39;38.60;;;38.40;;
24787;SDS011;12883;52.662;5.196;2023-02-14T07:22:05;39.90;;;39.60;;
24787;SDS011;12883;52.662;5.196;2023-02-14T07:24:30;39.17;;;38.87;;
24787;SDS011;12883;52.662;5.196;2023-02-14T07:26:55;40.47;;;40.17;;
24787;SDS011;12883;52.662;5.196;2023-02-14T07:29:21;40.57;;;40.27;;
24787;SDS011;12883;52.662;5.196;2023-02-14T07:31:46;40.10;;;39.80;;
24787;SDS011;12883;52.662;5.196;2023-02-14T07:34:11;40.10;;;39.80;;
24787;SDS011;12883;52.662;5.196;2023-02-14T07:36:37;40.60;;;40.30;;
24787;SDS011;12883;52.662;5.196;2023-02-14T07:39:03;39.17;;;38.97;;
24787;SDS011;12883;52.662;5.196;2023-02-14T07:41:29;39.73;;;39.53;;
24787;SDS011;12883;52.662;5.196;2023-02-14T07:43:54;39.80;;;39.60;;
24787;SDS011;12883;52.662;5.196;2023-02-14T07:46:19;40.43;;;40.13;;
24787;SDS011;12883;52.662;5.196;2023-02-14T07:48:45;40.40;;;40.10;;
24787;SDS011;12883;52.662;5.196;2023-02-14T07:51:10;40.07;;;39.77;;
24787;SDS011;12883;52.662;5.196;2023-02-14T07:53:35;38.40;;;38.13;;
24787;SDS011;12883;52.662;5.196;2023-02-14T07:56:01;40.37;;;40.07;;
24787;SDS011;12883;52.662;5.196;2023-02-14T07:58:26;39.37;;;39.07;;
24787;SDS011;12883;52.662;5.196;2023-02-14T08:00:51;38.83;;;38.53;;
24787;SDS011;12883;52.662;5.196;2023-02-14T08:03:17;39.80;;;39.53;;
24787;SDS011;12883;52.662;5.196;2023-02-14T08:05:42;39.53;;;39.33;;
24787;SDS011;12883;52.662;5.196;2023-02-14T08:08:08;40.90;;;40.60;;
24787;SDS011;12883;52.662;5.196;2023-02-14T08:10:33;39.90;;;39.60;;
24787;SDS011;12883;52.662;5.196;2023-02-14T08:12:58;40.07;;;39.77;;
24787;SDS011;12883;52.662;5.196;2023-02-14T08:15:25;42.33;;;42.03;;
24787;SDS011;12883;52.662;5.196;2023-02-14T08:18:14;42.20;;;41.90;;
24787;SDS011;12883;52.662;5.196;2023-02-14T08:20:40;43.20;;;42.90;;
24787;SDS011;12883;52.662;5.196;2023-02-14T08:23:05;44.03;;;43.73;;
24787;SDS011;12883;52.662;5.196;2023-02-14T08:25:31;44.20;;;43.90;;
24787;SDS011;12883;52.662;5.196;2023-02-14T08:27:56;44.93;;;44.63;;
24787;SDS011;12883;52.662;5.196;2023-02-14T08:30:22;44.67;;;44.37;;
24787;SDS011;12883;52.662;5.196;2023-02-14T08:32:48;44.63;;;44.33;;
24787;SDS011;12883;52.662;5.196;2023-02-14T08:35:13;45.17;;;44.87;;
24787;SDS011;12883;52.662;5.196;2023-02-14T08:37:38;44.20;;;43.90;;
24787;SDS011;12883;52.662;5.196;2023-02-14T08:40:04;44.43;;;44.13;;
24787;SDS011;12883;52.662;5.196;2023-02-14T08:42:30;45.33;;;45.03;;
24787;SDS011;12883;52.662;5.196;2023-02-14T08:44:56;42.67;;;42.37;;
24787;SDS011;12883;52.662;5.196;2023-02-14T08:47:21;46.20;;;45.90;;
24787;SDS011;12883;52.662;5.196;2023-02-14T08:49:46;48.03;;;47.73;;
24787;SDS011;12883;52.662;5.196;2023-02-14T08:52:12;48.97;;;48.67;;
24787;SDS011;12883;52.662;5.196;2023-02-14T08:54:37;48.07;;;47.77;;
24787;SDS011;12883;52.662;5.196;2023-02-14T08:57:02;46.27;;;45.97;;
24787;SDS011;12883;52.662;5.196;2023-02-14T08:59:28;47.70;;;47.40;;
24787;SDS011;12883;52.662;5.196;2023-02-14T09:01:53;45.20;;;44.90;;
24787;SDS011;12883;52.662;5.196;2023-02-14T09:04:19;47.87;;;47.57;;
24787;SDS011;12883;52.662;5.196;2023-02-14T09:06:44;47.73;;;47.43;;
24787;SDS011;12883;52.662;5.196;2023-02-14T09:09:10;50.50;;;50.20;;
24787;SDS011;12883;52.662;5.196;2023-02-14T09:11:35;51.63;;;51.33;;
24787;SDS011;12883;52.662;5.196;2023-02-14T09:14:00;51.23;;;50.93;;
24787;SDS011;12883;52.662;5.196;2023-02-14T09:16:26;50.63;;;50.33;;
24787;SDS011;12883;52.662;5.196;2023-02-14T09:18:52;51.60;;;51.30;;
24787;SDS011;12883;52.662;5.196;2023-02-14T09:21:20;50.27;;;49.97;;
24787;SDS011;12883;52.662;5.196;2023-02-14T09:23:48;55.03;;;54.63;;
24787;SDS011;12883;52.662;5.196;2023-02-14T09:26:13;56.13;;;55.73;;
24787;SDS011;12883;52.662;5.196;2023-02-14T09:28:40;52.97;;;52.57;;
24787;SDS011;12883;52.662;5.196;2023-02-14T09:33:40;54.13;;;53.83;;
24787;SDS011;12883;52.662;5.196;2023-02-14T09:36:25;54.70;;;54.30;;
24787;SDS011;12883;52.662;5.196;2023-02-14T09:39:08;57.23;;;56.83;;
24787;SDS011;12883;52.662;5.196;2023-02-14T09:44:26;56.33;;;55.93;;
24787;SDS011;12883;52.662;5.196;2023-02-14T09:46:58;56.13;;;55.73;;
24787;SDS011;12883;52.662;5.196;2023-02-14T09:49:30;57.83;;;57.43;;
24787;SDS011;12883;52.662;5.196;2023-02-14T09:51:57;57.80;;;57.40;;
24787;SDS011;12883;52.662;5.196;2023-02-14T09:54:26;55.40;;;55.00;;
24787;SDS011;12883;52.662;5.196;2023-02-14T09:59:54;55.40;;;55.10;;
24787;SDS011;12883;52.662;5.196;2023-02-14T10:02:38;58.13;;;57.73;;
24787;SDS011;12883;52.662;5.196;2023-02-14T10:05:31;56.77;;;56.37;;
24787;SDS011;12883;52.662;5.196;2023-02-14T10:10:31;55.93;;;55.53;;
24787;SDS011;12883;52.662;5.196;2023-02-14T10:13:16;57.33;;;56.93;;
24787;SDS011;12883;52.662;5.196;2023-02-14T10:16:03;57.07;;;56.67;;
24787;SDS011;12883;52.662;5.196;2023-02-14T10:18:41;56.43;;;56.03;;
24787;SDS011;12883;52.662;5.196;2023-02-14T10:21:15;54.23;;;53.93;;
24787;SDS011;12883;52.662;5.196;2023-02-14T10:23:49;56.47;;;56.07;;
24787;SDS011;12883;52.662;5.196;2023-02-14T10:26:23;59.27;;;58.87;;
24787;SDS011;12883;52.662;5.196;2023-02-14T10:28:54;55.40;;;55.00;;
24787;SDS011;12883;52.662;5.196;2023-02-14T10:39:57;56.83;;;56.43;;
24787;SDS011;12883;52.662;5.196;2023-02-14T10:42:27;57.30;;;56.90;;
24787;SDS011;12883;52.662;5.196;2023-02-14T10:59:26;54.43;;;54.13;;
24787;SDS011;12883;52.662;5.196;2023-02-14T11:01:59;57.90;;;57.50;;
24787;SDS011;12883;52.662;5.196;2023-02-14T11:04:26;57.10;;;56.70;;
24787;SDS011;12883;52.662;5.196;2023-02-14T11:06:52;54.90;;;54.60;;
24787;SDS011;12883;52.662;5.196;2023-02-14T11:09:18;57.10;;;56.70;;
24787;SDS011;12883;52.662;5.196;2023-02-14T11:16:50;55.77;;;55.47;;
24787;SDS011;12883;52.662;5.196;2023-02-14T11:21:45;56.70;;;56.30;;
24787;SDS011;12883;52.662;5.196;2023-02-14T11:27:01;52.43;;;52.13;;
24787;SDS011;12883;52.662;5.196;2023-02-14T11:29:34;54.03;;;53.73;;
24787;SDS011;12883;52.662;5.196;2023-02-14T11:32:07;54.40;;;54.10;;
24787;SDS011;12883;52.662;5.196;2023-02-14T11:34:41;53.83;;;53.53;;
24787;SDS011;12883;52.662;5.196;2023-02-14T11:39:47;52.83;;;52.53;;
24787;SDS011;12883;52.662;5.196;2023-02-14T11:42:13;54.77;;;54.47;;
24787;SDS011;12883;52.662;5.196;2023-02-14T11:44:57;54.40;;;54.10;;
24787;SDS011;12883;52.662;5.196;2023-02-14T11:47:33;52.57;;;52.27;;
24787;SDS011;12883;52.662;5.196;2023-02-14T11:50:14;54.90;;;54.60;;
24787;SDS011;12883;52.662;5.196;2023-02-14T11:52:51;52.90;;;52.60;;
24787;SDS011;12883;52.662;5.196;2023-02-14T11:55:26;52.43;;;52.13;;
24787;SDS011;12883;52.662;5.196;2023-02-14T11:57:53;53.43;;;53.13;;
24787;SDS011;12883;52.662;5.196;2023-02-14T12:00:21;53.17;;;52.87;;
24787;SDS011;12883;52.662;5.196;2023-02-14T12:02:48;54.67;;;54.37;;
24787;SDS011;12883;52.662;5.196;2023-02-14T12:07:45;54.97;;;54.67;;
24787;SDS011;12883;52.662;5.196;2023-02-14T12:12:51;52.40;;;52.10;;
24787;SDS011;12883;52.662;5.196;2023-02-14T12:15:33;51.80;;;51.50;;
24787;SDS011;12883;52.662;5.196;2023-02-14T12:23:51;52.57;;;52.27;;
24787;SDS011;12883;52.662;5.196;2023-02-14T12:26:30;51.50;;;51.20;;
24787;SDS011;12883;52.662;5.196;2023-02-14T12:31:41;51.70;;;51.40;;
24787;SDS011;12883;52.662;5.196;2023-02-14T12:34:09;51.80;;;51.50;;
24787;SDS011;12883;52.662;5.196;2023-02-14T12:36:41;50.63;;;50.33;;
24787;SDS011;12883;52.662;5.196;2023-02-14T12:39:27;51.43;;;51.13;;
24787;SDS011;12883;52.662;5.196;2023-02-14T12:44:42;50.37;;;50.07;;
24787;SDS011;12883;52.662;5.196;2023-02-14T12:50:31;49.27;;;48.97;;
24787;SDS011;12883;52.662;5.196;2023-02-14T13:01:04;51.20;;;50.90;;
24787;SDS011;12883;52.662;5.196;2023-02-14T13:06:46;48.57;;;48.27;;
24787;SDS011;12883;52.662;5.196;2023-02-14T13:22:40;47.53;;;47.23;;
24787;SDS011;12883;52.662;5.196;2023-02-14T13:25:41;48.00;;;47.70;;
24787;SDS011;12883;52.662;5.196;2023-02-14T13:28:06;45.30;;;45.00;;
24787;SDS011;12883;52.662;5.196;2023-02-14T13:30:36;46.20;;;45.90;;
24787;SDS011;12883;52.662;5.196;2023-02-14T13:36:10;46.33;;;46.13;;
24787;SDS011;12883;52.662;5.196;2023-02-14T13:38:37;45.97;;;45.70;;
24787;SDS011;12883;52.662;5.196;2023-02-14T13:41:09;45.13;;;44.93;;
24787;SDS011;12883;52.662;5.196;2023-02-14T13:44:18;44.23;;;43.97;;
24787;SDS011;12883;52.662;5.196;2023-02-14T13:51:50;45.73;;;45.53;;
24787;SDS011;12883;52.662;5.196;2023-02-14T13:57:28;47.07;;;46.77;;
24787;SDS011;12883;52.662;5.196;2023-02-14T14:10:49;46.50;;;46.20;;
24787;SDS011;12883;52.662;5.196;2023-02-14T14:18:53;45.03;;;44.77;;
24787;SDS011;12883;52.662;5.196;2023-02-14T14:21:22;47.10;;;46.80;;
24787;SDS011;12883;52.662;5.196;2023-02-14T14:27:01;45.33;;;45.13;;
24787;SDS011;12883;52.662;5.196;2023-02-14T14:29:37;46.73;;;46.43;;
24787;SDS011;12883;52.662;5.196;2023-02-14T14:32:18;44.53;;;44.33;;
24787;SDS011;12883;52.662;5.196;2023-02-14T14:35:50;45.43;;;45.23;;
24787;SDS011;12883;52.662;5.196;2023-02-14T14:37:45;45.43;;;45.13;;
24787;SDS011;12883;52.662;5.196;2023-02-14T14:42:47;45.20;;;44.93;;
24787;SDS011;12883;52.662;5.196;2023-02-14T14:45:23;45.20;;;45.00;;
24787;SDS011;12883;52.662;5.196;2023-02-14T14:47:54;43.67;;;43.47;;
24787;SDS011;12883;52.662;5.196;2023-02-14T14:50:22;45.17;;;44.97;;
24787;SDS011;12883;52.662;5.196;2023-02-14T14:52:54;45.17;;;44.87;;
24787;SDS011;12883;52.662;5.196;2023-02-14T14:55:34;45.83;;;45.53;;
24787;SDS011;12883;52.662;5.196;2023-02-14T14:58:05;45.47;;;45.27;;
24787;SDS011;12883;52.662;5.196;2023-02-14T15:00:51;44.40;;;44.20;;
24787;SDS011;12883;52.662;5.196;2023-02-14T15:03:19;44.47;;;44.27;;
24787;SDS011;12883;52.662;5.196;2023-02-14T15:05:47;45.23;;;44.97;;
24787;SDS011;12883;52.662;5.196;2023-02-14T15:13:58;47.70;;;47.40;;
24787;SDS011;12883;52.662;5.196;2023-02-14T15:16:45;45.77;;;45.57;;
24787;SDS011;12883;52.662;5.196;2023-02-14T15:19:16;48.60;;;48.30;;
24787;SDS011;12883;52.662;5.196;2023-02-14T15:21:46;47.47;;;47.17;;
24787;SDS011;12883;52.662;5.196;2023-02-14T15:24:13;47.70;;;47.40;;
24787;SDS011;12883;52.662;5.196;2023-02-14T15:26:42;46.57;;;46.27;;
24787;SDS011;12883;52.662;5.196;2023-02-14T15:29:17;46.37;;;46.07;;
24787;SDS011;12883;52.662;5.196;2023-02-14T15:31:46;46.07;;;45.83;;
24787;SDS011;12883;52.662;5.196;2023-02-14T15:34:13;47.33;;;47.03;;
24787;SDS011;12883;52.662;5.196;2023-02-14T15:36:38;47.97;;;47.67;;
24787;SDS011;12883;52.662;5.196;2023-02-14T15:39:10;48.73;;;48.43;;
24787;SDS011;12883;52.662;5.196;2023-02-14T15:41:41;48.43;;;48.13;;
24787;SDS011;12883;52.662;5.196;2023-02-14T15:44:16;49.80;;;49.50;;
24787;SDS011;12883;52.662;5.196;2023-02-14T15:46:43;47.93;;;47.63;;
24787;SDS011;12883;52.662;5.196;2023-02-14T15:49:09;49.80;;;49.50;;
24787;SDS011;12883;52.662;5.196;2023-02-14T15:51:40;49.80;;;49.50;;
24787;SDS011;12883;52.662;5.196;2023-02-14T15:54:20;47.33;;;47.03;;
24787;SDS011;12883;52.662;5.196;2023-02-14T15:56:53;48.23;;;47.93;;
24787;SDS011;12883;52.662;5.196;2023-02-14T15:59:26;47.23;;;46.93;;
24787;SDS011;12883;52.662;5.196;2023-02-14T16:04:29;48.63;;;48.33;;
24787;SDS011;12883;52.662;5.196;2023-02-14T16:07:12;49.17;;;48.87;;
24787;SDS011;12883;52.662;5.196;2023-02-14T16:09:42;48.60;;;48.30;;
24787;SDS011;12883;52.662;5.196;2023-02-14T16:12:28;48.60;;;48.30;;
24787;SDS011;12883;52.662;5.196;2023-02-14T16:17:33;52.03;;;51.73;;
24787;SDS011;12883;52.662;5.196;2023-02-14T16:20:01;49.57;;;49.27;;
24787;SDS011;12883;52.662;5.196;2023-02-14T16:23:13;50.73;;;50.43;;
24787;SDS011;12883;52.662;5.196;2023-02-14T16:25:39;50.17;;;49.87;;
24787;SDS011;12883;52.662;5.196;2023-02-14T16:28:05;51.03;;;50.73;;
24787;SDS011;12883;52.662;5.196;2023-02-14T16:30:30;50.63;;;50.33;;
24787;SDS011;12883;52.662;5.196;2023-02-14T16:32:56;50.37;;;50.07;;
24787;SDS011;12883;52.662;5.196;2023-02-14T16:35:21;50.60;;;50.30;;
24787;SDS011;12883;52.662;5.196;2023-02-14T16:37:47;49.73;;;49.43;;
24787;SDS011;12883;52.662;5.196;2023-02-14T16:40:15;50.77;;;50.47;;
24787;SDS011;12883;52.662;5.196;2023-02-14T16:42:43;50.40;;;50.10;;
24787;SDS011;12883;52.662;5.196;2023-02-14T16:45:15;51.60;;;51.30;;
24787;SDS011;12883;52.662;5.196;2023-02-14T16:47:41;50.40;;;50.10;;
24787;SDS011;12883;52.662;5.196;2023-02-14T16:50:07;50.53;;;50.23;;
24787;SDS011;12883;52.662;5.196;2023-02-14T16:52:33;50.97;;;50.67;;
24787;SDS011;12883;52.662;5.196;2023-02-14T16:54:59;52.03;;;51.73;;
24787;SDS011;12883;52.662;5.196;2023-02-14T16:57:26;54.43;;;54.13;;
24787;SDS011;12883;52.662;5.196;2023-02-14T16:59:56;48.90;;;48.60;;
24787;SDS011;12883;52.662;5.196;2023-02-14T17:02:21;52.43;;;52.13;;
24787;SDS011;12883;52.662;5.196;2023-02-14T17:04:47;52.77;;;52.47;;
24787;SDS011;12883;52.662;5.196;2023-02-14T17:07:12;53.00;;;52.70;;
24787;SDS011;12883;52.662;5.196;2023-02-14T17:09:40;54.00;;;53.70;;
24787;SDS011;12883;52.662;5.196;2023-02-14T17:12:11;53.63;;;53.33;;
24787;SDS011;12883;52.662;5.196;2023-02-14T17:14:40;54.07;;;53.77;;
24787;SDS011;12883;52.662;5.196;2023-02-14T17:17:09;53.73;;;53.43;;
24787;SDS011;12883;52.662;5.196;2023-02-14T17:19:35;52.13;;;51.83;;
24787;SDS011;12883;52.662;5.196;2023-02-14T17:22:01;52.73;;;52.43;;
24787;SDS011;12883;52.662;5.196;2023-02-14T17:24:28;54.53;;;54.23;;
24787;SDS011;12883;52.662;5.196;2023-02-14T17:26:54;55.00;;;54.70;;
24787;SDS011;12883;52.662;5.196;2023-02-14T17:29:19;55.53;;;55.23;;
24787;SDS011;12883;52.662;5.196;2023-02-14T17:31:44;57.10;;;56.70;;
24787;SDS011;12883;52.662;5.196;2023-02-14T17:34:10;56.33;;;55.97;;
24787;SDS011;12883;52.662;5.196;2023-02-14T17:36:35;56.17;;;55.77;;
24787;SDS011;12883;52.662;5.196;2023-02-14T17:39:01;54.47;;;54.17;;
24787;SDS011;12883;52.662;5.196;2023-02-14T17:41:27;56.47;;;56.13;;